Time;durP1;ratioP1;P1;durP2;ratioP2;P2;SDS_P1;SDS_P2;PMS_P1;PMS_P2;Temp;Humidity;BMP_temperature;BMP_pressure;BME280_temperature;BME280_humidity;BME280_pressure;Samples;Min_cycle;Max_cycle;Signal;HPM_P1;HPM_P2
2022/04/02 00:00:21;;;;;;;1.80;1.10;;;1.90;99.90;;;;;;6192791;23;20016;-87
2022/04/02 00:02:50;;;;;;;3.80;0.73;;;1.20;99.90;;;;;;6217932;23;20472;-86
2022/04/02 00:05:16;;;;;;;0.60;0.57;;;1.00;99.90;;;;;;6217550;23;20016;-86
2022/04/02 00:07:44;;;;;;;1.40;0.73;;;1.40;99.90;;;;;;6167314;23;20016;-86
2022/04/02 00:10:09;;;;;;;1.00;0.95;;;0.90;99.90;;;;;;6191696;23;20020;-86
2022/04/02 00:12:35;;;;;;;0.70;0.70;;;2.10;99.90;;;;;;6167842;23;20070;-85
2022/04/02 00:15:01;;;;;;;1.25;0.60;;;0.90;99.90;;;;;;6191862;23;20028;-86
2022/04/02 00:17:26;;;;;;;1.33;0.90;;;2.10;99.90;;;;;;6217148;23;20453;-85
2022/04/02 00:19:54;;;;;;;2.25;1.42;;;0.80;99.90;;;;;;6217777;23;20483;-85
2022/04/02 00:22:19;;;;;;;1.52;1.15;;;0.90;99.90;;;;;;6167537;23;20051;-85
2022/04/02 00:24:48;;;;;;;1.20;1.10;;;1.30;99.90;;;;;;6192489;23;20523;-86
2022/04/02 00:27:13;;;;;;;2.50;1.05;;;0.80;99.90;;;;;;6215888;23;20058;-86
2022/04/02 00:29:41;;;;;;;1.48;0.80;;;0.80;99.90;;;;;;6192764;23;20020;-86
2022/04/02 00:32:07;;;;;;;1.85;0.85;;;0.70;99.90;;;;;;6167511;23;20103;-86
2022/04/02 00:34:33;;;;;;;0.70;0.50;;;0.70;99.90;;;;;;6192373;23;20016;-86
2022/04/02 00:36:58;;;;;;;0.73;0.73;;;0.70;99.90;;;;;;6192026;23;20511;-91
2022/04/02 00:39:24;;;;;;;2.35;1.27;;;1.20;99.90;;;;;;6218241;23;20055;-85
2022/04/02 00:41:50;;;;;;;0.70;0.70;;;1.70;99.90;;;;;;6169930;23;20012;-85
2022/04/02 00:44:21;;;;;;;1.77;1.33;;;1.80;99.90;;;;;;6220034;23;20015;-85
2022/04/02 00:46:47;;;;;;;0.57;0.57;;;0.60;99.90;;;;;;6195231;23;20018;-85
2022/04/02 00:49:16;;;;;;;0.90;0.90;;;0.60;99.90;;;;;;6219280;23;20054;-85
2022/04/02 00:51:44;;;;;;;0.73;0.52;;;1.90;99.90;;;;;;6195134;23;20251;-85
2022/04/02 00:54:16;;;;;;;0.73;0.65;;;1.70;99.90;;;;;;6219708;23;20012;-87
2022/04/02 00:56:42;;;;;;;2.97;0.80;;;0.60;99.90;;;;;;6195473;23;20077;-85
2022/04/02 00:59:08;;;;;;;1.10;0.87;;;0.60;99.90;;;;;;6219672;23;20074;-85
2022/04/02 01:01:35;;;;;;;2.25;1.45;;;0.60;99.90;;;;;;6194563;23;20048;-85
2022/04/02 01:04:05;;;;;;;1.38;1.23;;;1.60;99.90;;;;;;6194821;23;20577;-91
2022/04/02 01:06:32;;;;;;;0.80;0.73;;;0.50;99.90;;;;;;6196182;23;20386;-85
2022/04/02 01:08:58;;;;;;;;;;;0.80;99.90;;;;;;6194846;23;20020;-86
2022/04/02 01:11:34;;;;;;;1.27;1.17;;;1.40;99.90;;;;;;6193856;23;20297;-86
2022/04/02 01:13:59;;;;;;;2.15;0.70;;;0.70;99.90;;;;;;6171123;23;20099;-85
2022/04/02 01:16:28;;;;;;;1.77;1.02;;;1.00;99.90;;;;;;6194459;23;20075;-85
2022/04/02 01:18:54;;;;;;;0.38;0.38;;;1.60;99.90;;;;;;6220038;23;20023;-85
2022/04/02 01:21:20;;;;;;;0.90;0.90;;;1.40;99.90;;;;;;6194325;23;20016;-85
2022/04/02 01:23:46;;;;;;;1.10;1.00;;;0.40;99.90;;;;;;6169958;23;20020;-86
2022/04/02 01:26:12;;;;;;;1.73;1.13;;;0.30;99.90;;;;;;6194400;23;20258;-85
2022/04/02 01:28:37;;;;;;;2.35;1.02;;;0.20;99.90;;;;;;6194672;23;20392;-86
2022/04/02 01:31:05;;;;;;;1.70;1.17;;;0.20;99.90;;;;;;6170045;23;20016;-84
2022/04/02 01:33:31;;;;;;;1.90;1.13;;;0.20;99.90;;;;;;6194660;23;20357;-85
2022/04/02 01:36:02;;;;;;;1.88;1.40;;;1.20;99.90;;;;;;6194640;23;20012;-84
2022/04/02 01:38:28;;;;;;;0.50;0.50;;;0.10;99.90;;;;;;6219195;23;20012;-85
2022/04/02 01:40:56;;;;;;;1.40;0.63;;;0.10;99.90;;;;;;6194641;23;20058;-85
2022/04/02 01:43:22;;;;;;;2.30;1.08;;;0.40;99.90;;;;;;6193277;23;20416;-84
2022/04/02 01:45:56;;;;;;;0.73;0.73;;;0.10;99.90;;;;;;6219310;23;20019;-85
2022/04/02 01:48:22;;;;;;;1.33;1.08;;;0.20;99.90;;;;;;6193940;23;20024;-85
2022/04/02 01:50:51;;;;;;;0.95;0.90;;;1.10;99.90;;;;;;6219456;23;20012;-85
2022/04/02 01:53:18;;;;;;;1.60;0.95;;;0.50;99.90;;;;;;6194053;23;20082;-85
2022/04/02 01:55:44;;;;;;;3.80;1.10;;;0.70;99.90;;;;;;6194570;23;20012;-84
2022/04/02 01:58:10;;;;;;;2.78;0.98;;;0.40;99.90;;;;;;6193858;23;20017;-86
2022/04/02 02:00:37;;;;;;;0.90;0.90;;;0.00;99.90;;;;;;6194020;23;20019;-85
2022/04/02 02:03:02;;;;;;;1.73;0.85;;;1.00;99.90;;;;;;6219260;23;20039;-85
2022/04/02 02:05:28;;;;;;;1.10;0.68;;;0.70;99.90;;;;;;6169162;23;20020;-85
2022/04/02 02:07:54;;;;;;;3.63;0.88;;;0.90;99.90;;;;;;6194694;23;20397;-84
2022/04/02 02:10:20;;;;;;;2.08;1.10;;;-0.10;99.90;;;;;;6193393;23;20078;-85
2022/04/02 02:12:46;;;;;;;1.50;0.80;;;0.60;99.90;;;;;;6192836;23;20360;-85
2022/04/02 02:15:16;;;;;;;1.40;1.00;;;-0.10;99.90;;;;;;6218924;23;20065;-85
2022/04/02 02:17:44;;;;;;;0.80;0.80;;;0.90;99.90;;;;;;6194841;23;20047;-85
2022/04/02 02:20:12;;;;;;;0.55;0.55;;;-0.10;99.90;;;;;;6168885;23;20023;-86
2022/04/02 02:22:38;;;;;;;1.38;0.75;;;0.00;99.90;;;;;;6194508;23;20020;-84
2022/04/02 02:25:05;;;;;;;1.00;0.63;;;-0.10;99.90;;;;;;6194266;23;20019;-85
2022/04/02 02:27:31;;;;;;;0.75;0.75;;;-0.10;99.90;;;;;;6193825;23;20020;-85
2022/04/02 02:29:57;;;;;;;0.60;0.60;;;-0.10;99.90;;;;;;6139719;23;20020;-84
2022/04/02 02:32:22;;;;;;;3.07;0.80;;;1.00;99.90;;;;;;6164014;23;20326;-85
2022/04/02 02:37:32;;;;;;;0.77;0.77;;;-0.10;99.90;;;;;;6167209;23;20028;-85
2022/04/02 02:39:58;;;;;;;3.50;3.22;;;-0.10;99.90;;;;;;6188871;23;20017;-85
2022/04/02 02:42:24;;;;;;;1.23;0.88;;;-0.10;99.90;;;;;;6138816;23;20369;-84
2022/04/02 02:44:50;;;;;;;0.80;0.80;;;0.30;99.90;;;;;;6164097;23;20073;-84
2022/04/02 02:47:16;;;;;;;0.57;0.55;;;-0.10;99.90;;;;;;6163886;23;20386;-85
2022/04/02 02:49:41;;;;;;;1.83;1.23;;;-0.10;99.90;;;;;;6188538;23;20070;-84
2022/04/02 02:52:07;;;;;;;1.00;0.63;;;-0.10;99.90;;;;;;6188892;23;20023;-84
2022/04/02 02:54:33;;;;;;;2.35;1.08;;;-0.10;99.90;;;;;;6163908;23;20025;-84
2022/04/02 02:56:59;;;;;;;0.55;0.52;;;0.40;99.90;;;;;;6188679;23;20499;-84
2022/04/02 02:59:24;;;;;;;4.37;0.77;;;0.40;99.90;;;;;;6188168;23;20021;-85
2022/04/02 03:01:50;;;;;;;1.05;1.00;;;0.90;99.90;;;;;;6163980;23;20012;-85
2022/04/02 03:04:18;;;;;;;3.17;1.07;;;-0.10;99.90;;;;;;6163193;23;20023;-85
2022/04/02 03:06:44;;;;;;;1.00;1.00;;;0.60;99.90;;;;;;6188630;23;20020;-84
2022/04/02 03:09:10;;;;;;;1.45;0.90;;;0.70;99.90;;;;;;6163913;23;20013;-85
2022/04/02 03:11:36;;;;;;;0.70;0.70;;;0.70;99.90;;;;;;6138259;23;20074;-85
2022/04/02 03:14:02;;;;;;;0.70;0.63;;;-0.20;99.90;;;;;;6139158;23;20013;-84
2022/04/02 03:16:28;;;;;;;0.95;0.82;;;-0.20;99.90;;;;;;6187738;23;20020;-84
2022/04/02 03:18:54;;;;;;;0.52;0.52;;;0.20;99.90;;;;;;6163892;23;20020;-84
2022/04/02 03:21:20;;;;;;;1.00;0.60;;;-0.20;99.90;;;;;;6162613;23;20503;-84
2022/04/02 03:23:46;;;;;;;1.27;1.20;;;-0.30;99.90;;;;;;6188490;23;20024;-84
2022/04/02 03:26:12;;;;;;;5.90;1.73;;;-0.30;99.90;;;;;;6138878;23;20087;-85
2022/04/02 03:28:37;;;;;;;2.13;0.75;;;1.10;99.90;;;;;;6163037;23;20095;-84
2022/04/02 03:31:03;;;;;;;1.13;0.82;;;-0.30;99.90;;;;;;6188974;23;20021;-84
2022/04/02 03:33:29;;;;;;;1.13;0.88;;;-0.30;99.90;;;;;;6163237;23;20368;-84
2022/04/02 03:35:55;;;;;;;0.45;0.45;;;-0.30;99.90;;;;;;6163394;23;20017;-84
2022/04/02 03:38:20;;;;;;;4.57;4.13;;;0.10;99.90;;;;;;6163218;23;20020;-85
2022/04/02 03:40:46;;;;;;;1.77;1.63;;;0.40;99.90;;;;;;6164069;23;20070;-84
2022/04/02 03:43:12;;;;;;;0.52;0.52;;;0.60;99.90;;;;;;6163226;23;20086;-84
2022/04/02 03:45:37;;;;;;;0.63;0.45;;;0.20;99.90;;;;;;6162604;23;20450;-85
2022/04/02 03:48:04;;;;;;;1.60;0.90;;;-0.40;99.90;;;;;;6163544;23;20027;-85
2022/04/02 03:50:29;;;;;;;1.17;0.90;;;-0.40;99.90;;;;;;6163158;23;20016;-84
2022/04/02 03:52:56;;;;;;;1.25;0.75;;;-0.50;99.90;;;;;;6188539;23;20248;-85
2022/04/02 03:55:22;;;;;;;3.60;1.10;;;-0.50;99.90;;;;;;6163119;23;20017;-85
2022/04/02 03:57:49;;;;;;;1.57;0.97;;;-0.50;99.90;;;;;;6138901;23;20012;-84
2022/04/02 04:00:15;;;;;;;1.17;1.00;;;-0.50;99.90;;;;;;6139499;23;20016;-84
2022/04/02 04:02:41;;;;;;;0.70;0.70;;;-0.60;99.90;;;;;;6138390;23;20020;-84
2022/04/02 04:05:08;;;;;;;0.50;0.50;;;-0.60;99.90;;;;;;6163017;23;20066;-84
2022/04/02 04:07:37;;;;;;;0.75;0.75;;;-0.60;99.90;;;;;;6187779;23;20024;-84
2022/04/02 04:10:04;;;;;;;0.73;0.57;;;-0.60;99.90;;;;;;6163400;23;20095;-84
2022/04/02 04:12:29;;;;;;;0.80;0.70;;;-0.60;99.90;;;;;;6162365;23;20016;-84
2022/04/02 04:14:55;;;;;;;0.90;0.70;;;-0.60;99.90;;;;;;6115802;23;20016;-87
2022/04/02 04:17:23;;;;;;;0.63;0.63;;;-0.60;99.90;;;;;;6190127;23;20023;-84
2022/04/02 04:19:50;;;;;;;0.82;0.82;;;0.60;99.90;;;;;;6190389;23;20016;-84
2022/04/02 04:22:17;;;;;;;1.27;0.60;;;-0.70;99.90;;;;;;6190295;23;20323;-84
2022/04/02 04:24:42;;;;;;;0.65;0.65;;;-0.70;99.90;;;;;;6164981;23;20470;-84
2022/04/02 04:27:08;;;;;;;1.00;0.65;;;-0.80;99.90;;;;;;6190021;23;20078;-84
2022/04/02 04:29:35;;;;;;;1.45;1.35;;;-0.80;99.90;;;;;;6215070;23;20070;-84
2022/04/02 04:32:01;;;;;;;0.93;0.70;;;-0.80;99.90;;;;;;6195964;23;20026;-84
2022/04/02 04:34:27;;;;;;;1.42;1.42;;;-0.60;99.90;;;;;;6194731;23;20095;-84
2022/04/02 04:36:52;;;;;;;2.50;1.10;;;0.00;99.90;;;;;;6195029;23;20074;-84
2022/04/02 04:39:18;;;;;;;0.50;0.50;;;-0.80;99.90;;;;;;6194757;23;20031;-84
2022/04/02 04:41:44;;;;;;;1.13;0.50;;;-0.70;99.90;;;;;;6194598;23;20336;-84
2022/04/02 04:44:10;;;;;;;0.90;0.60;;;-0.70;99.90;;;;;;6194663;23;20447;-84
2022/04/02 04:46:36;;;;;;;2.72;0.77;;;-0.70;99.90;;;;;;6170167;23;20055;-84
2022/04/02 04:49:02;;;;;;;0.68;0.68;;;0.50;99.90;;;;;;6219877;23;20016;-84
2022/04/02 04:51:28;;;;;;;2.67;1.30;;;-0.10;99.90;;;;;;6194898;23;20016;-84
2022/04/02 04:53:54;;;;;;;2.00;1.38;;;0.40;99.90;;;;;;6219964;23;20341;-84
2022/04/02 04:56:20;;;;;;;0.80;0.63;;;0.40;99.90;;;;;;6219686;23;20016;-84
2022/04/02 04:58:46;;;;;;;3.70;1.20;;;-0.70;99.90;;;;;;6193915;23;20453;-84
2022/04/02 05:01:15;;;;;;;0.88;0.50;;;-0.70;99.90;;;;;;6220022;23;20012;-84
2022/04/02 05:03:41;;;;;;;0.90;0.75;;;0.00;99.90;;;;;;6194263;23;20095;-84
2022/04/02 05:06:10;;;;;;;1.00;0.93;;;0.00;99.90;;;;;;6195388;23;20071;-84
2022/04/02 05:08:35;;;;;;;5.05;1.75;;;-0.70;99.90;;;;;;6219507;23;20377;-85
2022/04/02 05:11:01;;;;;;;0.75;0.75;;;-0.70;99.90;;;;;;6195051;23;20031;-84
2022/04/02 05:13:28;;;;;;;0.47;0.47;;;-0.70;99.90;;;;;;6194572;23;20471;-83
2022/04/02 05:15:54;;;;;;;1.27;0.70;;;-0.80;99.90;;;;;;6219833;23;20088;-84
2022/04/02 05:18:21;;;;;;;1.13;1.03;;;-0.70;99.90;;;;;;6219606;23;20089;-84
2022/04/02 05:20:46;;;;;;;2.75;1.00;;;-0.30;99.90;;;;;;6169858;23;20530;-84
2022/04/02 05:23:12;;;;;;;0.63;0.63;;;0.10;99.90;;;;;;6194799;23;20016;-84
2022/04/02 05:25:38;;;;;;;0.57;0.57;;;0.40;99.90;;;;;;6144589;23;20024;-84
2022/04/02 05:28:05;;;;;;;0.65;0.63;;;0.40;99.90;;;;;;6193387;23;20016;-84
2022/04/02 05:30:34;;;;;;;1.52;0.98;;;-0.70;99.90;;;;;;6219479;23;20020;-84
2022/04/02 05:33:01;;;;;;;0.82;0.82;;;0.60;99.90;;;;;;6219970;23;20027;-84
2022/04/02 05:35:26;;;;;;;1.50;1.40;;;0.20;99.90;;;;;;6169992;23;20453;-84
2022/04/02 05:37:52;;;;;;;0.53;0.53;;;-0.10;99.90;;;;;;6246037;23;20031;-84
2022/04/02 05:40:18;;;;;;;1.08;0.90;;;0.20;99.90;;;;;;6194235;23;20016;-84
2022/04/02 05:42:45;;;;;;;0.93;0.60;;;-0.40;99.90;;;;;;6218154;23;20019;-84
2022/04/02 05:45:12;;;;;;;0.52;0.52;;;-0.40;99.90;;;;;;6218530;23;20483;-84
2022/04/02 05:47:42;;;;;;;0.85;0.63;;;-0.30;99.90;;;;;;6218996;23;20027;-84
2022/04/02 05:50:10;;;;;;;0.80;0.70;;;0.90;99.90;;;;;;6194371;23;20020;-85
2022/04/02 05:52:37;;;;;;;1.85;1.05;;;0.70;99.90;;;;;;6193961;23;20349;-85
2022/04/02 05:55:03;;;;;;;0.93;0.90;;;1.00;99.90;;;;;;6169773;23;20048;-85
2022/04/02 05:57:29;;;;;;;0.60;0.60;;;-0.10;99.90;;;;;;6219448;23;20048;-84
2022/04/02 05:59:55;;;;;;;2.13;0.93;;;0.00;99.90;;;;;;6219009;23;20028;-84
2022/04/02 06:02:21;;;;;;;0.82;0.77;;;0.30;99.90;;;;;;6219106;23;20399;-84
2022/04/02 06:04:47;;;;;;;1.43;1.33;;;0.10;99.90;;;;;;6218977;23;20023;-84
2022/04/02 06:07:15;;;;;;;1.05;0.98;;;0.20;99.90;;;;;;6146696;23;20044;-84
2022/04/02 06:09:41;;;;;;;0.93;0.93;;;0.30;99.90;;;;;;6245720;23;20341;-84
2022/04/02 06:12:07;;;;;;;4.68;1.50;;;1.30;99.90;;;;;;6219470;23;20016;-84
2022/04/02 06:14:33;;;;;;;1.57;0.63;;;0.60;99.90;;;;;;6193315;23;20369;-85
2022/04/02 06:16:58;;;;;;;1.57;0.90;;;2.20;99.90;;;;;;6218643;23;20051;-85
2022/04/02 06:19:24;;;;;;;1.42;1.05;;;1.00;99.90;;;;;;6219415;23;20016;-84
2022/04/02 06:21:50;;;;;;;1.63;0.73;;;1.30;99.90;;;;;;6219076;23;20016;-84
2022/04/02 06:24:15;;;;;;;1.53;1.20;;;1.50;99.90;;;;;;6194341;23;20051;-84
2022/04/02 06:26:41;;;;;;;2.43;1.60;;;1.70;99.90;;;;;;6218981;23;20027;-85
2022/04/02 06:29:07;;;;;;;2.17;1.33;;;2.80;99.90;;;;;;6218714;23;20379;-84
2022/04/02 06:31:36;;;;;;;1.45;1.25;;;2.10;99.90;;;;;;6194858;23;20059;-85
2022/04/02 06:34:02;;;;;;;;;;;2.90;99.90;;;;;;6219015;23;20146;-84
2022/04/02 06:36:28;;;;;;;1.70;1.38;;;2.50;99.90;;;;;;6219104;23;19915;-84
2022/04/02 06:38:54;;;;;;;2.83;2.00;;;2.60;99.90;;;;;;6193824;23;20016;-83
2022/04/02 06:41:19;;;;;;;2.07;1.70;;;2.80;99.90;;;;;;6193598;23;20074;-85
2022/04/02 06:43:45;;;;;;;5.10;1.40;;;3.40;99.90;;;;;;6167896;23;20092;-85
2022/04/02 06:46:11;;;;;;;1.47;1.30;;;4.20;99.90;;;;;;6168719;23;20109;-84
2022/04/02 06:48:37;;;;;;;1.33;1.10;;;3.40;99.90;;;;;;6194042;23;20016;-89
2022/04/02 06:51:07;;;;;;;1.70;1.40;;;3.50;99.90;;;;;;6195725;23;20368;-87
2022/04/02 06:53:36;;;;;;;2.63;1.35;;;3.70;99.90;;;;;;6193748;23;20023;-86
2022/04/02 06:56:02;;;;;;;3.35;1.80;;;3.90;99.90;;;;;;6216342;23;20031;-87
2022/04/02 06:58:33;;;;;;;4.13;1.60;;;4.10;99.90;;;;;;6168490;23;20086;-88
2022/04/02 07:00:59;;;;;;;1.67;1.58;;;4.90;99.90;;;;;;6191678;23;20020;-88
2022/04/02 07:03:28;;;;;;;1.10;1.00;;;4.40;99.90;;;;;;6192120;23;20065;-87
2022/04/02 07:05:56;;;;;;;3.28;1.70;;;4.60;99.90;;;;;;6192404;23;20020;-89
2022/04/02 07:08:29;;;;;;;4.70;2.03;;;4.70;99.90;;;;;;6168307;23;20056;-88
2022/04/02 07:10:58;;;;;;;1.70;1.60;;;4.80;99.90;;;;;;6192633;23;20099;-87
2022/04/02 07:13:24;;;;;;;1.40;1.30;;;5.80;99.90;;;;;;6193102;23;20386;-83
2022/04/02 07:15:50;;;;;;;1.88;1.45;;;5.10;99.90;;;;;;6217182;23;20016;-81
2022/04/02 07:18:19;;;;;;;1.65;1.17;;;4.50;99.90;;;;;;6168188;23;20052;-84
2022/04/02 07:20:51;;;;;;;2.30;1.80;;;6.10;99.90;;;;;;6190985;23;20052;-92
2022/04/02 07:23:20;;;;;;;1.50;1.33;;;5.10;99.90;;;;;;6192905;23;20495;-87
2022/04/02 07:25:49;;;;;;;1.40;1.30;;;5.00;99.90;;;;;;6191220;23;20019;-88
2022/04/02 07:28:25;;;;;;;2.25;1.63;;;6.00;99.90;;;;;;6168380;23;20027;-87
2022/04/02 07:30:53;;;;;;;1.60;1.50;;;5.60;99.90;;;;;;6217690;23;20020;-87
2022/04/02 07:33:22;;;;;;;1.25;1.02;;;5.40;99.90;;;;;;6168143;23;20027;-89
2022/04/02 07:36:00;;;;;;;2.05;1.52;;;6.20;99.90;;;;;;6217400;23;20016;-89
2022/04/02 07:39:27;;;;;;;1.40;1.30;;;6.40;99.90;;;;;;6194298;23;20012;-89
2022/04/02 07:42:11;;;;;;;1.05;0.95;;;5.50;99.90;;;;;;6183197;23;20070;-86
2022/04/02 07:44:57;;;;;;;1.42;0.95;;;5.50;99.90;;;;;;6190163;23;20020;-88
2022/04/02 07:47:33;;;;;;;5.30;1.60;;;5.60;99.90;;;;;;6192766;23;20094;-87
2022/04/02 07:50:11;;;;;;;5.38;1.65;;;5.80;99.90;;;;;;6191459;23;20094;-87
2022/04/02 07:52:37;;;;;;;4.05;1.30;;;5.80;99.90;;;;;;6168154;23;20028;-86
2022/04/02 07:55:10;;;;;;;1.23;1.10;;;5.70;99.90;;;;;;6216464;23;20012;-88
2022/04/02 07:57:43;;;;;;;3.20;0.90;;;5.60;99.90;;;;;;6191410;23;20020;-87
2022/04/02 08:00:29;;;;;;;2.53;1.10;;;6.60;99.90;;;;;;6191404;23;20024;-87
2022/04/02 08:02:57;;;;;;;2.22;1.42;;;5.50;99.90;;;;;;6168965;23;20096;-87
2022/04/02 08:05:26;;;;;;;1.50;1.35;;;5.30;99.90;;;;;;6216773;23;20095;-87
2022/04/02 08:08:00;;;;;;;3.95;1.48;;;5.30;99.90;;;;;;6185178;23;20060;-87
2022/04/02 08:10:35;;;;;;;1.35;0.93;;;5.20;99.90;;;;;;6207487;23;20437;-90
2022/04/02 08:13:03;;;;;;;1.30;1.00;;;4.90;99.90;;;;;;6207084;23;20024;-91
2022/04/02 08:15:29;;;;;;;1.63;1.40;;;4.70;99.90;;;;;;6190152;23;20024;-88
2022/04/02 08:18:20;;;;;;;;;;;;;;;;;;;;;
2022/04/02 08:20:59;;;;;;;1.33;0.80;;;4.20;99.90;;;;;;6196756;23;20023;-88
2022/04/02 08:23:32;;;;;;;1.05;0.95;;;4.10;99.90;;;;;;6217124;23;20024;-88
2022/04/02 08:26:11;;;;;;;3.78;1.70;;;4.00;99.90;;;;;;6191788;23;20490;-87
2022/04/02 08:28:55;;;;;;;2.53;1.67;;;4.00;99.90;;;;;;6192283;23;20497;-87
2022/04/02 08:31:30;;;;;;;1.30;1.20;;;3.90;99.90;;;;;;6217736;23;20016;-88
2022/04/02 08:34:22;;;;;;;1.88;1.02;;;3.80;99.90;;;;;;6192037;23;20020;-89
2022/04/02 08:37:11;;;;;;;1.30;1.20;;;3.90;99.90;;;;;;6217576;23;20073;-88
2022/04/02 08:39:52;;;;;;;1.60;1.30;;;3.90;99.90;;;;;;6192204;23;20020;-89
2022/04/02 08:42:38;;;;;;;3.75;1.33;;;4.00;99.90;;;;;;6192288;23;20019;-88
2022/04/02 08:45:12;;;;;;;1.75;1.27;;;4.00;99.90;;;;;;6217243;23;20098;-88
2022/04/02 08:47:57;;;;;;;2.70;1.30;;;4.00;99.90;;;;;;6191959;23;20024;-88
2022/04/02 08:50:44;;;;;;;1.27;0.90;;;4.80;99.90;;;;;;6192898;23;20091;-88
2022/04/02 08:53:20;;;;;;;1.10;1.05;;;4.30;99.90;;;;;;6192876;23;20051;-88
2022/04/02 08:55:57;;;;;;;3.92;1.23;;;3.80;99.90;;;;;;6192938;23;20051;-89
2022/04/02 08:59:00;;;;;;;5.28;1.45;;;4.40;99.90;;;;;;6218168;23;20012;-88
2022/04/02 09:01:39;;;;;;;2.30;0.90;;;4.40;99.90;;;;;;6194014;23;20020;-86
2022/04/02 09:04:26;;;;;;;2.75;1.08;;;5.70;99.90;;;;;;6194978;23;20020;-86
2022/04/02 09:07:18;;;;;;;1.83;1.58;;;4.80;99.90;;;;;;6194792;23;20073;-88
2022/04/02 09:10:15;;;;;;;0.80;0.80;;;5.00;99.90;;;;;;6141388;23;20326;-88
2022/04/02 09:13:20;;;;;;;;;;;;;;;;;;;;;
2022/04/02 09:16:38;;;;;;;3.67;1.48;;;5.30;99.90;;;;;;6219636;23;20016;-88
2022/04/02 09:19:37;;;;;;;0.75;0.75;;;5.50;99.90;;;;;;6022692;23;20026;-89
2022/04/02 09:22:36;;;;;;;1.35;1.08;;;5.50;99.90;;;;;;6046242;23;20014;-90
2022/04/02 09:25:18;;;;;;;;;;;;;;;;;;;;;
2022/04/02 09:28:17;;;;;;;1.45;0.77;;;5.40;99.90;;;;;;6219696;23;20035;-89
2022/04/02 09:31:19;;;;;;;1.13;0.77;;;5.10;99.90;;;;;;6217933;23;20102;-87
2022/04/02 09:34:03;;;;;;;1.95;0.90;;;4.90;99.90;;;;;;6193780;23;20023;-89
2022/04/02 09:36:48;;;;;;;1.05;0.82;;;4.80;99.90;;;;;;6184937;23;20028;-89
2022/04/02 09:39:31;;;;;;;1.15;0.85;;;4.80;99.90;;;;;;6188687;23;20016;-89
2022/04/02 09:42:26;;;;;;;3.13;1.17;;;3.90;99.90;;;;;;6195256;23;20019;-89
2022/04/02 09:45:18;;;;;;;2.70;0.70;;;4.30;99.90;;;;;;6194342;23;20031;-89
2022/04/02 09:48:11;;;;;;;2.50;1.08;;;4.30;99.90;;;;;;6193568;23;20051;-89
2022/04/02 09:50:43;;;;;;;1.45;1.00;;;3.40;99.90;;;;;;6194430;23;20024;-89
2022/04/02 09:53:47;;;;;;;3.53;0.57;;;4.00;99.90;;;;;;6193286;23;20019;-95
2022/04/02 09:57:01;;;;;;;1.00;0.75;;;4.00;99.90;;;;;;6175156;23;20091;-90
2022/04/02 10:00:08;;;;;;;1.23;0.70;;;3.90;99.90;;;;;;6129566;23;20020;-90
2022/04/02 10:03:17;;;;;;;1.90;1.17;;;4.00;99.90;;;;;;6195588;23;20018;-90
2022/04/02 10:06:13;;;;;;;0.80;0.80;;;4.30;99.90;;;;;;6192737;23;20441;-90
2022/04/02 10:08:58;;;;;;;1.20;1.10;;;5.90;99.90;;;;;;6194484;23;20016;-89
2022/04/02 10:12:03;;;;;;;1.42;1.33;;;5.20;99.90;;;;;;6171126;23;20047;-91
2022/04/02 10:14:56;;;;;;;1.25;0.73;;;5.70;99.90;;;;;;6195968;23;20020;-88
2022/04/02 10:17:28;;;;;;;0.60;0.60;;;5.60;99.90;;;;;;6200749;23;20016;-88
2022/04/02 10:19:59;;;;;;;0.50;0.50;;;6.10;99.90;;;;;;6194523;23;20016;-88
2022/04/02 10:22:56;;;;;;;0.70;0.70;;;7.40;99.90;;;;;;6192929;23;20103;-88
2022/04/02 10:25:27;;;;;;;0.82;0.82;;;6.10;99.90;;;;;;6192590;23;20356;-86
2022/04/02 10:28:11;;;;;;;1.70;0.90;;;5.90;99.90;;;;;;6197677;23;20016;-86
2022/04/02 10:30:51;;;;;;;0.55;0.55;;;6.70;99.90;;;;;;6192436;23;20056;-87
2022/04/02 10:33:27;;;;;;;1.27;0.80;;;5.60;99.90;;;;;;6192489;23;20019;-88
2022/04/02 10:38:58;;;;;;;0.38;0.38;;;5.50;99.90;;;;;;6218296;23;20099;-88
2022/04/02 10:41:34;;;;;;;1.75;0.93;;;5.60;99.90;;;;;;6192453;23;20106;-87
2022/04/02 10:44:24;;;;;;;0.77;0.70;;;5.60;99.90;;;;;;6193148;23;20027;-88
2022/04/02 10:46:57;;;;;;;2.05;1.17;;;5.50;99.90;;;;;;6191821;23;20022;-88
2022/04/02 10:49:40;;;;;;;1.80;1.00;;;5.70;99.90;;;;;;6193065;23;20031;-88
2022/04/02 10:52:22;;;;;;;3.63;1.05;;;5.80;99.90;;;;;;6193212;23;20016;-89
2022/04/02 10:54:53;;;;;;;0.65;0.63;;;6.40;99.90;;;;;;6192926;23;20089;-89
2022/04/02 10:57:32;;;;;;;;;;;;;;;;;;;;;
2022/04/02 11:00:08;;;;;;;2.03;1.45;;;6.60;99.90;;;;;;6218313;23;20022;-88
2022/04/02 11:02:49;;;;;;;1.67;0.93;;;6.70;99.90;;;;;;6194259;23;20059;-90
2022/04/02 11:05:37;;;;;;;;;;;;;;;;;;;;;
2022/04/02 11:08:13;;;;;;;2.72;1.48;;;6.70;99.90;;;;;;6222427;23;20016;-87
2022/04/02 11:14:02;;;;;;;1.70;1.23;;;5.40;99.90;;;;;;6208143;23;20052;-89
2022/04/02 11:17:18;;;;;;;2.42;0.73;;;5.80;99.90;;;;;;6193891;23;20016;-89
2022/04/02 11:20:07;;;;;;;1.00;0.95;;;5.40;99.90;;;;;;6196613;23;20020;-89
2022/04/02 11:23:01;;;;;;;1.70;1.10;;;5.10;99.90;;;;;;6171581;23;20338;-88
2022/04/02 11:25:34;;;;;;;2.55;0.70;;;4.70;99.90;;;;;;6218626;23;20024;-88
2022/04/02 11:31:23;;;;;;;1.00;0.90;;;4.50;99.90;;;;;;6197824;23;20031;-88
2022/04/02 11:33:53;;;;;;;0.98;0.98;;;4.40;99.90;;;;;;6194008;23;20020;-90
2022/04/02 11:36:57;;;;;;;;;;;;;;;;;;;;;
2022/04/02 11:40:04;;;;;;;1.08;0.90;;;4.60;99.90;;;;;;6213979;23;20314;-90
2022/04/02 11:46:51;;;;;;;0.70;0.68;;;4.30;99.90;;;;;;6245883;23;20057;-90
2022/04/02 11:56:35;;;;;;;;;;;;;;;;;;;;;
2022/04/02 11:59:21;;;;;;;0.43;0.43;;;6.70;99.90;;;;;;6219511;23;20349;-91
2022/04/02 12:01:53;;;;;;;2.53;0.98;;;6.70;99.90;;;;;;6168825;23;20016;-89
2022/04/02 12:04:25;;;;;;;0.75;0.57;;;6.90;99.90;;;;;;6193136;23;20380;-91
2022/04/02 12:07:16;;;;;;;;;;;;;;;;;;;;;
2022/04/02 12:13:21;;;;;;;1.35;0.70;;;7.20;99.90;;;;;;6202766;23;20109;-89
2022/04/02 12:16:08;;;;;;;1.45;0.75;;;7.30;99.90;;;;;;6217866;23;20013;-89
2022/04/02 12:19:12;;;;;;;0.80;0.80;;;7.00;99.90;;;;;;6167626;23;20016;-95
2022/04/02 12:21:42;;;;;;;0.95;0.93;;;6.70;99.90;;;;;;6191418;23;20052;-88
2022/04/02 12:24:11;;;;;;;1.92;0.70;;;6.40;99.90;;;;;;6192683;23;20016;-87
2022/04/02 12:26:47;;;;;;;0.60;0.60;;;6.50;99.90;;;;;;6192313;23;20374;-87
2022/04/02 12:29:28;;;;;;;1.73;0.88;;;6.50;99.90;;;;;;6161508;23;20450;-88
2022/04/02 12:31:55;;;;;;;2.13;0.47;;;6.50;99.90;;;;;;6163333;23;20033;-87
2022/04/02 12:34:32;;;;;;;0.50;0.50;;;6.70;99.90;;;;;;6161912;23;20025;-87
2022/04/02 12:37:05;;;;;;;0.77;0.60;;;6.90;99.90;;;;;;6164623;23;20017;-88
2022/04/02 12:40:01;;;;;;;;;;;;;;;;;;;;;
2022/04/02 12:42:45;;;;;;;0.60;0.57;;;7.00;98.00;;;;;;6188498;23;20017;-89
2022/04/02 12:45:38;;;;;;;0.43;0.35;;;7.10;95.70;;;;;;6164804;23;20021;-87
2022/04/02 12:48:17;;;;;;;1.67;0.65;;;7.10;96.80;;;;;;6163311;23;20434;-86
2022/04/02 12:51:01;;;;;;;1.02;0.75;;;7.20;96.30;;;;;;6163642;23;20095;-86
2022/04/02 12:53:37;;;;;;;1.45;0.75;;;7.40;92.90;;;;;;6165274;23;20016;-87
2022/04/02 12:56:17;;;;;;;1.33;0.82;;;7.50;93.40;;;;;;6188561;23;20013;-87
2022/04/02 12:58:52;;;;;;;0.75;0.63;;;7.60;90.30;;;;;;6163645;23;20028;-87
2022/04/02 13:01:27;;;;;;;2.13;1.02;;;7.70;92.50;;;;;;6164871;23;20017;-88
2022/04/02 13:04:08;;;;;;;0.50;0.50;;;7.40;88.50;;;;;;6163523;23;20016;-87
2022/04/02 13:06:53;;;;;;;1.13;0.90;;;8.20;87.40;;;;;;6163774;23;20028;-88
2022/04/02 13:09:21;;;;;;;0.88;0.77;;;8.30;85.90;;;;;;6164301;23;20485;-88
2022/04/02 13:12:00;;;;;;;2.53;1.08;;;8.30;89.70;;;;;;6164493;23;20020;-88
2022/04/02 13:14:30;;;;;;;1.42;0.77;;;8.80;89.90;;;;;;6164645;23;20096;-87
2022/04/02 13:17:12;;;;;;;0.90;0.70;;;8.60;90.90;;;;;;6164941;23;20401;-87
2022/04/02 13:22:57;;;;;;;3.42;1.25;;;7.80;88.90;;;;;;6188580;23;20027;-86
2022/04/02 13:25:29;;;;;;;4.40;0.77;;;7.80;91.20;;;;;;6188872;23;20021;-84
2022/04/02 13:28:18;;;;;;;1.52;1.42;;;7.70;90.40;;;;;;6188428;23;20020;-85
2022/04/02 13:30:59;;;;;;;1.55;1.00;;;7.10;85.70;;;;;;6163178;23;20028;-87
2022/04/02 13:33:59;;;;;;;0.93;0.85;;;7.10;90.50;;;;;;6164429;23;20079;-88
2022/04/02 13:36:53;;;;;;;1.92;1.10;;;7.30;90.30;;;;;;6163712;23;20020;-87
2022/04/02 13:39:22;;;;;;;3.00;1.25;;;7.70;90.50;;;;;;6158232;23;20103;-88
2022/04/02 13:41:52;;;;;;;1.13;0.88;;;7.40;91.20;;;;;;6163592;23;20341;-87
2022/04/02 13:44:28;;;;;;;1.58;1.10;;;8.00;87.10;;;;;;6188690;23;20027;-87
2022/04/02 13:46:56;;;;;;;1.77;0.95;;;8.50;90.90;;;;;;6163005;23;20601;-88
2022/04/02 13:49:33;;;;;;;2.80;1.30;;;8.30;90.40;;;;;;6188769;23;20025;-87
2022/04/02 13:52:00;;;;;;;;;;;8.10;84.30;;;;;;6138682;23;20012;-87
2022/04/02 13:54:40;;;;;;;2.35;0.98;;;8.00;78.10;;;;;;6164139;23;19916;-88
2022/04/02 13:57:20;;;;;;;0.93;0.60;;;7.80;81.40;;;;;;6164389;23;20095;-87
2022/04/02 13:59:58;;;;;;;0.45;0.45;;;7.80;81.30;;;;;;6163642;23;20016;-88
2022/04/02 14:02:26;;;;;;;0.90;0.70;;;7.60;83.60;;;;;;6163776;23;20349;-87
2022/04/02 14:05:10;;;;;;;0.60;0.60;;;7.60;86.90;;;;;;6187674;23;20016;-87
2022/04/02 14:08:07;;;;;;;0.55;0.55;;;7.70;86.70;;;;;;6163749;23;20342;-88